Heselton, Kentucky
Current Conditions -  °F | °C
As of 6:15 AM on Monday 22 Dec 2014 (Local Time) from KFGX Reporting Station
Overcast Overcast  
Wind Chill: 33°   Ceiling: 6000
Heat Index: 33°   Visibility: 10mi
Dew Point: 29°   Wind: 3mph
Humidity: 88%   Direction: 120°ESE
Pressure: 30.04"   Gusts: NA
Location:  38.4929°N, 83.3898°W
Report Text: KFGX 221115Z AUTO 12003KT 10SM OVC060 00/M01 A3004 RMK AO2 T00031015
Loading
Personal Weather Stations






























Interactive Weather Map New forecast layout! Learn more

10-Day Weather Forecast

Advertisements
Track Severe Weather on mobile